createdAt,value
2023-05-05T00:00:23.156Z,13.29
2023-05-05T00:02:49.585Z,13.28
2023-05-05T00:05:16.192Z,13.28
2023-05-05T00:07:42.799Z,13.29
2023-05-05T00:10:09.849Z,13.30
2023-05-05T00:12:38.363Z,13.29
2023-05-05T00:15:05.265Z,13.30
2023-05-05T00:17:31.618Z,13.28
2023-05-05T00:19:59.576Z,13.25
2023-05-05T00:22:26.050Z,13.25
2023-05-05T00:24:53.440Z,13.27
2023-05-05T00:27:19.895Z,13.30
2023-05-05T00:29:46.672Z,13.30
2023-05-05T00:32:13.660Z,13.32
2023-05-05T00:34:40.069Z,13.30
2023-05-05T00:37:06.401Z,13.31
2023-05-05T00:39:33.179Z,13.25
2023-05-05T00:41:59.569Z,13.18
2023-05-05T00:44:42.185Z,13.13
2023-05-05T00:47:14.121Z,13.05
2023-05-05T00:49:40.693Z,12.98
2023-05-05T00:52:07.911Z,12.94
2023-05-05T00:54:40.659Z,12.92
2023-05-05T00:57:07.745Z,12.91
2023-05-05T00:59:34.967Z,12.94
2023-05-05T01:02:02.753Z,12.98
2023-05-05T01:04:29.138Z,12.98
2023-05-05T01:07:07.821Z,12.99
2023-05-05T01:09:40.091Z,13.02
2023-05-05T01:12:24.716Z,13.02
2023-05-05T01:15:04.756Z,13.05
2023-05-05T01:17:39.626Z,13.05
2023-05-05T01:20:23.624Z,13.07
2023-05-05T01:22:59.655Z,13.10
2023-05-05T01:25:44.712Z,13.13
2023-05-05T01:28:42.056Z,13.11
2023-05-05T01:31:46.295Z,13.11
2023-05-05T01:34:16.526Z,13.12
2023-05-05T01:36:47.052Z,13.14
2023-05-05T01:39:16.456Z,13.16
2023-05-05T01:41:46.972Z,13.19
2023-05-05T01:44:16.695Z,13.22
2023-05-05T01:46:43.043Z,13.26
2023-05-05T01:49:11.473Z,13.28
2023-05-05T01:51:39.710Z,13.30
2023-05-05T01:54:08.377Z,13.32
2023-05-05T01:56:38.767Z,13.36
2023-05-05T01:59:10.642Z,13.41
2023-05-05T02:01:41.418Z,13.44
2023-05-05T02:04:09.784Z,13.48
2023-05-05T02:06:38.186Z,13.55
2023-05-05T02:09:05.773Z,13.62
2023-05-05T02:11:35.925Z,13.77
2023-05-05T02:14:07.928Z,13.89
2023-05-05T02:16:37.349Z,13.90
2023-05-05T02:19:05.057Z,13.98
2023-05-05T02:21:33.606Z,13.97
2023-05-05T02:24:00.726Z,13.94
2023-05-05T02:26:30.631Z,13.91
2023-05-05T02:29:03.894Z,13.88
2023-05-05T02:31:33.037Z,13.86
2023-05-05T02:34:02.039Z,13.89
2023-05-05T02:36:32.553Z,13.88
2023-05-05T02:39:04.844Z,13.83
2023-05-05T02:41:34.608Z,13.74
2023-05-05T02:44:05.518Z,13.71
2023-05-05T02:46:32.482Z,13.65
2023-05-05T02:48:59.684Z,13.59
2023-05-05T02:51:26.155Z,13.54
2023-05-05T02:53:52.542Z,13.48
2023-05-05T02:56:42.796Z,13.41
2023-05-05T02:59:24.509Z,13.33
2023-05-05T03:02:15.676Z,13.24
2023-05-05T03:04:50.511Z,13.13
2023-05-05T03:07:31.064Z,13.06
2023-05-05T03:10:09.510Z,13.03
2023-05-05T03:12:40.678Z,12.99
2023-05-05T03:15:13.067Z,12.95
2023-05-05T03:17:41.546Z,12.91
2023-05-05T03:20:09.670Z,12.88
2023-05-05T03:22:37.808Z,12.80
2023-05-05T03:25:04.992Z,12.77
2023-05-05T03:27:31.624Z,12.74
2023-05-05T03:29:57.962Z,12.68
2023-05-05T03:32:24.418Z,12.63
2023-05-05T03:34:51.670Z,12.60
2023-05-05T03:37:18.007Z,12.53
2023-05-05T03:39:44.536Z,12.50
2023-05-05T03:42:10.896Z,12.53
2023-05-05T03:44:37.271Z,12.56
2023-05-05T03:47:03.690Z,12.56
2023-05-05T03:49:30.195Z,12.52
2023-05-05T03:51:56.527Z,12.43
2023-05-05T03:54:22.871Z,12.39
2023-05-05T03:56:49.184Z,12.39
2023-05-05T03:59:15.902Z,12.41
2023-05-05T04:01:42.234Z,12.43
2023-05-05T04:04:09.663Z,12.50
2023-05-05T04:06:36.076Z,12.53
2023-05-05T04:09:03.230Z,12.53
2023-05-05T04:11:30.124Z,12.52
2023-05-05T04:13:56.596Z,12.54
2023-05-05T04:16:23.117Z,12.52
2023-05-05T04:18:49.572Z,12.49
2023-05-05T04:21:16.041Z,12.48
2023-05-05T04:23:42.428Z,12.48
2023-05-05T04:26:08.770Z,12.43
2023-05-05T04:28:35.192Z,12.40
2023-05-05T04:31:02.533Z,12.40
2023-05-05T04:33:28.894Z,12.35
2023-05-05T04:35:55.260Z,12.35
2023-05-05T04:38:21.828Z,12.34
2023-05-05T04:40:52.695Z,12.35
2023-05-05T04:43:19.799Z,12.38
2023-05-05T04:45:53.690Z,12.41
2023-05-05T04:48:20.771Z,12.42
2023-05-05T04:50:51.886Z,12.44
2023-05-05T04:53:18.882Z,12.48
2023-05-05T04:55:45.264Z,12.52
2023-05-05T04:58:11.625Z,12.53
2023-05-05T05:00:38.048Z,12.53
2023-05-05T05:03:04.580Z,12.52
2023-05-05T05:05:32.955Z,12.52
2023-05-05T05:07:59.630Z,12.52
2023-05-05T05:10:26.024Z,12.54
2023-05-05T05:12:52.652Z,12.56
2023-05-05T05:15:19.364Z,12.60
2023-05-05T05:17:45.748Z,12.65
2023-05-05T05:20:12.202Z,12.69
2023-05-05T05:22:38.965Z,12.72
2023-05-05T05:25:05.795Z,12.76
2023-05-05T05:27:32.165Z,12.80
2023-05-05T05:29:58.517Z,12.86
2023-05-05T05:32:24.834Z,12.92
2023-05-05T05:34:51.244Z,13.00
2023-05-05T05:37:17.620Z,13.06
2023-05-05T05:39:43.980Z,13.12
2023-05-05T05:42:10.318Z,13.20
2023-05-05T05:44:36.753Z,13.37
2023-05-05T05:47:03.980Z,13.76
2023-05-05T05:49:30.376Z,14.02
2023-05-05T05:51:56.708Z,13.95
2023-05-05T05:54:23.031Z,14.14
2023-05-05T05:56:49.359Z,14.70
2023-05-05T05:59:15.817Z,14.66
2023-05-05T06:01:42.144Z,14.74
2023-05-05T06:04:08.588Z,14.75
2023-05-05T06:06:36.264Z,14.78
2023-05-05T06:09:02.730Z,14.86
2023-05-05T06:11:29.207Z,14.84
2023-05-05T06:13:55.773Z,14.83
2023-05-05T06:16:22.101Z,14.81
2023-05-05T06:18:48.525Z,15.38
2023-05-05T06:21:14.949Z,15.88
2023-05-05T06:23:42.055Z,17.23
2023-05-05T06:26:08.395Z,17.95
2023-05-05T06:28:34.834Z,18.32
2023-05-05T06:31:01.235Z,18.80
2023-05-05T06:33:27.668Z,19.09
2023-05-05T06:35:54.284Z,18.62
2023-05-05T06:38:20.693Z,18.39
2023-05-05T06:40:49.401Z,18.59
2023-05-05T06:43:16.734Z,18.39
2023-05-05T06:45:43.940Z,18.27
2023-05-05T06:48:10.636Z,19.37
2023-05-05T06:50:37.046Z,23.09
2023-05-05T06:53:03.375Z,25.87
2023-05-05T06:55:29.730Z,27.81
2023-05-05T06:57:56.446Z,28.76
2023-05-05T07:00:23.094Z,27.78
2023-05-05T07:02:49.811Z,26.43
2023-05-05T07:05:16.474Z,25.20
2023-05-05T07:07:56.116Z,24.06
2023-05-05T07:10:23.701Z,23.83
2023-05-05T07:12:51.501Z,24.16
2023-05-05T07:15:27.440Z,24.59
2023-05-05T07:17:55.592Z,23.94
2023-05-05T07:20:21.961Z,24.74
2023-05-05T07:22:48.300Z,25.24
2023-05-05T07:25:14.650Z,24.73
2023-05-05T07:27:41.117Z,23.92
2023-05-05T07:30:13.093Z,23.45
2023-05-05T07:32:41.187Z,23.78
2023-05-05T07:35:07.872Z,23.57
2023-05-05T07:37:34.304Z,23.64
2023-05-05T07:40:00.871Z,23.82
2023-05-05T07:42:27.194Z,23.39
2023-05-05T07:44:53.569Z,23.71
2023-05-05T07:47:20.173Z,23.49
2023-05-05T07:49:46.557Z,23.38
2023-05-05T07:55:28.532Z,22.83
2023-05-05T07:57:54.975Z,22.63
2023-05-05T08:00:21.651Z,22.32
2023-05-05T08:02:48.558Z,22.37
2023-05-05T08:05:15.051Z,22.44
2023-05-05T08:07:41.756Z,22.35
2023-05-05T08:10:10.455Z,22.37
2023-05-05T08:12:37.415Z,22.40
2023-05-05T08:15:05.145Z,22.43
2023-05-05T08:17:44.718Z,22.32
2023-05-05T08:20:11.672Z,22.02
2023-05-05T08:22:37.995Z,22.07
2023-05-05T08:25:04.897Z,22.09
2023-05-05T08:27:35.082Z,22.14
2023-05-05T08:30:04.624Z,22.04
2023-05-05T08:32:31.351Z,22.21
2023-05-05T08:34:57.868Z,22.35
2023-05-05T08:37:24.707Z,22.31
2023-05-05T08:39:51.053Z,21.93
2023-05-05T08:42:29.057Z,21.65
2023-05-05T08:45:02.340Z,21.46
2023-05-05T08:47:28.738Z,21.36
2023-05-05T08:49:56.527Z,21.22
2023-05-05T08:52:23.959Z,21.21
2023-05-05T08:54:54.990Z,21.10
2023-05-05T08:57:28.251Z,21.01
2023-05-05T08:59:56.787Z,21.10
2023-05-05T09:02:24.305Z,21.09
2023-05-05T09:04:52.188Z,21.00
2023-05-05T09:07:18.743Z,20.92
2023-05-05T09:09:46.295Z,20.81
2023-05-05T09:12:12.710Z,20.67
2023-05-05T09:14:39.023Z,20.57
2023-05-05T09:17:05.402Z,20.52
2023-05-05T09:19:31.775Z,20.39
2023-05-05T09:21:58.142Z,20.32
2023-05-05T09:24:24.530Z,20.31
2023-05-05T09:26:50.955Z,20.38
2023-05-05T09:29:21.867Z,20.34
2023-05-05T09:32:05.524Z,20.24
2023-05-05T09:34:34.151Z,20.23
2023-05-05T09:37:00.610Z,20.04
2023-05-05T09:39:27.321Z,19.73
2023-05-05T09:41:53.637Z,19.55
2023-05-05T09:44:36.978Z,19.59
2023-05-05T09:47:07.236Z,19.56
2023-05-05T09:49:39.113Z,19.45
2023-05-05T09:52:15.519Z,19.44
2023-05-05T09:54:43.006Z,19.56
2023-05-05T09:57:25.737Z,19.59
2023-05-05T10:00:00.048Z,19.60
2023-05-05T10:02:35.348Z,19.36
2023-05-05T10:05:07.011Z,19.26
2023-05-05T10:07:34.977Z,19.24
2023-05-05T10:10:03.201Z,19.22
2023-05-05T10:12:31.195Z,19.12
2023-05-05T10:15:00.979Z,19.08
2023-05-05T10:17:30.893Z,18.95
2023-05-05T10:19:57.567Z,18.41
2023-05-05T10:22:26.062Z,17.69
2023-05-05T10:25:04.380Z,16.79
2023-05-05T10:27:38.799Z,16.44
2023-05-05T10:30:06.937Z,16.34
2023-05-05T10:35:22.496Z,16.16
2023-05-05T10:37:49.130Z,16.05
2023-05-05T10:40:17.551Z,15.97
2023-05-05T10:42:44.311Z,15.96
2023-05-05T10:45:10.734Z,15.92
2023-05-05T10:47:40.127Z,15.79
2023-05-05T10:50:21.500Z,15.72
2023-05-05T10:53:03.237Z,15.65
2023-05-05T10:55:35.754Z,15.54
2023-05-05T10:58:02.110Z,15.37
2023-05-05T11:00:40.938Z,15.29
2023-05-05T11:03:20.773Z,15.24
2023-05-05T11:06:08.586Z,15.21
2023-05-05T11:08:39.569Z,15.13
2023-05-05T11:11:06.744Z,15.06
2023-05-05T11:13:33.178Z,15.03
2023-05-05T11:16:01.914Z,15.01
2023-05-05T11:18:44.484Z,15.01
2023-05-05T11:21:17.729Z,15.00
2023-05-05T11:23:51.777Z,14.96
2023-05-05T11:26:53.223Z,14.90
2023-05-05T11:29:19.597Z,14.86
2023-05-05T11:31:47.770Z,14.90
2023-05-05T11:34:27.334Z,14.87
2023-05-05T11:37:00.193Z,14.80
2023-05-05T11:39:52.135Z,14.72
2023-05-05T11:42:26.638Z,14.63
2023-05-05T11:44:54.471Z,14.59
2023-05-05T11:47:20.725Z,14.60
2023-05-05T11:49:47.264Z,14.58
2023-05-05T11:52:15.004Z,14.53
2023-05-05T11:54:48.079Z,14.49
2023-05-05T11:57:17.174Z,14.47
2023-05-05T11:59:58.529Z,14.49
2023-05-05T12:02:27.345Z,14.50
2023-05-05T12:04:54.451Z,14.49
2023-05-05T12:07:22.842Z,14.50
2023-05-05T12:09:49.736Z,14.56
2023-05-05T12:12:16.682Z,14.55
2023-05-05T12:14:47.336Z,14.58
2023-05-05T12:17:14.024Z,14.60
2023-05-05T12:19:51.628Z,14.64
2023-05-05T12:22:26.325Z,14.68
2023-05-05T12:25:01.140Z,14.71
2023-05-05T12:27:28.497Z,14.71
2023-05-05T12:29:56.062Z,14.73
2023-05-05T12:32:24.828Z,14.75
2023-05-05T12:34:54.374Z,14.78
2023-05-05T12:37:22.132Z,14.78
2023-05-05T12:39:49.365Z,14.75
2023-05-05T12:42:16.321Z,14.76
2023-05-05T12:44:44.200Z,14.74
2023-05-05T12:47:14.275Z,14.75
2023-05-05T12:49:50.719Z,14.76
2023-05-05T12:52:17.553Z,14.74
2023-05-05T12:54:55.169Z,14.75
2023-05-05T12:57:22.263Z,14.76
2023-05-05T12:59:49.291Z,14.71
2023-05-05T13:02:16.545Z,14.71
2023-05-05T13:04:51.569Z,14.68
2023-05-05T13:07:19.722Z,14.67
2023-05-05T13:09:48.039Z,14.72
2023-05-05T13:12:17.812Z,14.79
2023-05-05T13:14:45.325Z,14.84
2023-05-05T13:17:12.837Z,14.84
2023-05-05T13:19:45.967Z,14.86
2023-05-05T13:22:13.255Z,14.85
2023-05-05T13:24:50.631Z,14.79
2023-05-05T13:27:18.510Z,14.79
2023-05-05T13:29:44.848Z,14.79
2023-05-05T13:32:11.404Z,14.78
2023-05-05T13:34:39.090Z,14.78
2023-05-05T13:37:05.926Z,14.76
2023-05-05T13:39:32.258Z,14.74
2023-05-05T13:41:58.699Z,14.70
2023-05-05T13:44:25.124Z,14.66
2023-05-05T13:46:51.513Z,14.61
2023-05-05T13:49:18.016Z,14.60
2023-05-05T13:51:45.258Z,14.58
2023-05-05T13:54:11.592Z,14.57
2023-05-05T13:56:38.146Z,14.55
2023-05-05T13:59:04.525Z,14.51
2023-05-05T14:01:31.088Z,14.50
2023-05-05T14:03:58.058Z,14.47
2023-05-05T14:06:25.937Z,14.45
2023-05-05T14:08:52.438Z,14.47
2023-05-05T14:11:20.948Z,14.45
2023-05-05T14:13:47.961Z,14.46
2023-05-05T14:16:14.575Z,14.45
2023-05-05T14:18:41.153Z,14.47
2023-05-05T14:21:07.508Z,14.48
2023-05-05T14:23:33.974Z,14.54
2023-05-05T14:26:00.872Z,14.60
2023-05-05T14:28:27.394Z,14.55
2023-05-05T14:30:53.735Z,14.58
2023-05-05T14:33:20.288Z,14.61
2023-05-05T14:35:46.626Z,14.62
2023-05-05T14:38:13.041Z,14.55
2023-05-05T14:40:39.481Z,14.52
2023-05-05T14:43:05.828Z,14.52
2023-05-05T14:45:32.357Z,14.50
2023-05-05T14:47:58.844Z,14.54
2023-05-05T14:50:25.259Z,14.64
2023-05-05T14:52:51.568Z,14.82
2023-05-05T14:55:18.011Z,14.99
2023-05-05T14:57:44.372Z,15.16
2023-05-05T15:00:11.172Z,15.31
2023-05-05T15:02:37.706Z,15.39
2023-05-05T15:05:04.438Z,15.47
2023-05-05T15:07:30.878Z,15.49
2023-05-05T15:09:57.289Z,15.47
2023-05-05T15:12:24.228Z,15.47
2023-05-05T15:14:50.626Z,15.42
2023-05-05T15:17:16.984Z,15.35
2023-05-05T15:19:43.324Z,15.27
2023-05-05T15:22:09.742Z,15.24
2023-05-05T15:24:37.179Z,15.31
2023-05-05T15:27:03.711Z,15.34
2023-05-05T15:29:30.081Z,15.43
2023-05-05T15:31:56.518Z,15.48
2023-05-05T15:34:23.241Z,15.58
2023-05-05T15:36:49.653Z,15.65
2023-05-05T15:39:16.030Z,15.71
2023-05-05T15:41:42.337Z,15.76
2023-05-05T15:44:11.908Z,15.75
2023-05-05T15:46:39.080Z,15.74
2023-05-05T15:49:05.532Z,15.72
2023-05-05T15:51:32.213Z,15.66
2023-05-05T15:53:59.637Z,15.61
2023-05-05T15:56:27.325Z,15.58
2023-05-05T15:58:54.112Z,15.56
2023-05-05T16:01:20.934Z,15.53
2023-05-05T16:03:47.329Z,15.55
2023-05-05T16:06:13.845Z,15.58
2023-05-05T16:08:40.299Z,15.55
2023-05-05T16:11:06.748Z,15.70
2023-05-05T16:13:33.056Z,16.03
2023-05-05T16:15:59.399Z,16.33
2023-05-05T16:18:25.752Z,16.37
2023-05-05T16:20:52.127Z,16.34
2023-05-05T16:23:18.477Z,16.34
2023-05-05T16:25:44.784Z,16.30
2023-05-05T16:28:11.115Z,16.26
2023-05-05T16:30:39.802Z,16.25
2023-05-05T16:33:06.695Z,16.32
2023-05-05T16:35:33.148Z,16.49
2023-05-05T16:37:59.537Z,16.52
2023-05-05T16:40:25.837Z,16.59
2023-05-05T16:42:52.157Z,16.65
2023-05-05T16:45:18.524Z,16.79
2023-05-05T16:47:44.906Z,16.79
2023-05-05T16:50:11.316Z,16.76
2023-05-05T16:52:37.649Z,16.76
2023-05-05T16:55:04.779Z,16.72
2023-05-05T16:57:31.639Z,16.65
2023-05-05T16:59:58.091Z,16.66
2023-05-05T17:02:24.548Z,16.71
2023-05-05T17:04:50.962Z,16.66
2023-05-05T17:07:19.663Z,16.66
2023-05-05T17:09:45.979Z,16.65
2023-05-05T17:12:12.296Z,16.61
2023-05-05T17:14:39.496Z,16.63
2023-05-05T17:17:06.203Z,16.64
2023-05-05T17:19:32.557Z,16.70
2023-05-05T17:21:58.920Z,16.66
2023-05-05T17:24:25.770Z,16.59
2023-05-05T17:26:52.149Z,16.52
2023-05-05T17:29:23.409Z,16.51
2023-05-05T17:31:50.581Z,16.44
2023-05-05T17:34:17.003Z,16.37
2023-05-05T17:36:43.366Z,16.35
2023-05-05T17:39:11.260Z,16.33
2023-05-05T17:41:37.566Z,16.30
2023-05-05T17:44:04.050Z,16.21
2023-05-05T17:46:30.350Z,16.17
2023-05-05T17:48:56.760Z,16.12
2023-05-05T17:51:23.156Z,16.11
2023-05-05T17:53:49.461Z,16.06
2023-05-05T17:56:16.470Z,16.02
2023-05-05T17:58:42.799Z,15.96
2023-05-05T18:01:13.299Z,15.90
2023-05-05T18:03:40.940Z,15.82
2023-05-05T18:06:07.673Z,15.80
2023-05-05T18:08:33.990Z,15.74
2023-05-05T18:11:00.297Z,15.70
2023-05-05T18:13:26.685Z,15.63
2023-05-05T18:15:53.046Z,15.61
2023-05-05T18:18:19.403Z,15.61
2023-05-05T18:20:45.767Z,15.61
2023-05-05T18:23:12.738Z,15.54
2023-05-05T18:25:39.283Z,15.42
2023-05-05T18:28:05.646Z,15.38
2023-05-05T18:30:32.836Z,15.34
2023-05-05T18:32:59.329Z,15.29
2023-05-05T18:35:25.988Z,15.26
2023-05-05T18:37:52.372Z,15.21
2023-05-05T18:40:18.754Z,15.15
2023-05-05T18:42:45.185Z,15.10
2023-05-05T18:45:11.795Z,15.06
2023-05-05T18:47:41.396Z,15.00
2023-05-05T18:50:09.756Z,14.89
2023-05-05T18:52:36.132Z,14.77
2023-05-05T18:55:02.538Z,14.68
2023-05-05T18:57:29.028Z,14.60
2023-05-05T18:59:55.373Z,14.51
2023-05-05T19:02:21.803Z,14.42
2023-05-05T19:04:48.300Z,14.34
2023-05-05T19:07:27.575Z,14.28
2023-05-05T19:10:00.669Z,14.19
2023-05-05T19:12:26.992Z,14.12
2023-05-05T19:14:53.297Z,14.02
2023-05-05T19:17:19.900Z,13.93
2023-05-05T19:19:46.219Z,13.82
2023-05-05T19:22:12.606Z,13.71
2023-05-05T19:24:38.947Z,13.62
2023-05-05T19:27:05.417Z,13.53
2023-05-05T19:29:31.982Z,13.40
2023-05-05T19:31:58.400Z,13.29
2023-05-05T19:34:24.780Z,13.23
2023-05-05T19:36:51.250Z,13.15
2023-05-05T19:39:17.613Z,13.06
2023-05-05T19:41:44.038Z,12.94
2023-05-05T19:44:10.624Z,12.83
2023-05-05T19:46:36.984Z,12.81
2023-05-05T19:49:03.644Z,12.79
2023-05-05T19:51:29.961Z,12.66
2023-05-05T19:53:56.621Z,12.55
2023-05-05T19:56:23.821Z,12.48
2023-05-05T19:58:53.493Z,12.47
2023-05-05T20:01:19.846Z,12.48
2023-05-05T20:03:46.589Z,12.49
2023-05-05T20:06:13.008Z,12.46
2023-05-05T20:08:39.378Z,12.45
2023-05-05T20:11:05.699Z,12.43
2023-05-05T20:13:34.170Z,12.41
2023-05-05T20:16:00.889Z,12.37
2023-05-05T20:18:27.238Z,12.36
2023-05-05T20:20:53.591Z,12.35
2023-05-05T20:23:19.920Z,12.29
2023-05-05T20:25:46.245Z,12.20
2023-05-05T20:28:12.575Z,12.06
2023-05-05T20:30:38.937Z,11.97
2023-05-05T20:33:05.473Z,11.81
2023-05-05T20:35:31.878Z,11.66
2023-05-05T20:37:58.225Z,11.56
2023-05-05T20:40:25.384Z,11.49
2023-05-05T20:42:51.756Z,11.45
2023-05-05T20:45:18.510Z,11.43
2023-05-05T20:47:44.964Z,11.41
2023-05-05T20:50:11.733Z,11.35
2023-05-05T20:52:38.272Z,11.30
2023-05-05T20:55:05.326Z,11.27
2023-05-05T20:57:31.738Z,11.24
2023-05-05T20:59:58.152Z,11.23
2023-05-05T21:02:24.586Z,11.26
2023-05-05T21:04:50.948Z,11.25
2023-05-05T21:07:17.296Z,11.23
2023-05-05T21:09:46.649Z,11.22
2023-05-05T21:12:12.968Z,11.19
2023-05-05T21:14:44.060Z,11.19
2023-05-05T21:17:10.522Z,11.16
2023-05-05T21:19:36.825Z,11.07
2023-05-05T21:22:03.252Z,10.92
2023-05-05T21:24:29.597Z,10.83
2023-05-05T21:26:56.262Z,10.79
2023-05-05T21:29:24.546Z,10.77
2023-05-05T21:31:50.918Z,10.81
2023-05-05T21:34:18.224Z,10.84
2023-05-05T21:36:44.580Z,10.87
2023-05-05T21:39:10.963Z,10.86
2023-05-05T21:41:37.284Z,10.83
2023-05-05T21:44:03.718Z,10.76
2023-05-05T21:46:30.102Z,10.76
2023-05-05T21:48:56.598Z,10.71
2023-05-05T21:51:23.515Z,10.65
2023-05-05T21:53:49.865Z,10.60
2023-05-05T21:56:16.338Z,10.58
2023-05-05T21:58:42.676Z,10.56
2023-05-05T22:01:09.140Z,10.51
2023-05-05T22:03:35.716Z,10.44
2023-05-05T22:06:02.213Z,10.43
2023-05-05T22:08:28.544Z,10.41
2023-05-05T22:10:54.858Z,10.38
2023-05-05T22:13:21.242Z,10.28
2023-05-05T22:15:47.798Z,10.19
2023-05-05T22:18:14.863Z,10.18
2023-05-05T22:20:41.372Z,10.15
2023-05-05T22:23:07.872Z,10.12
2023-05-05T22:25:35.158Z,10.12
2023-05-05T22:28:01.561Z,10.16
2023-05-05T22:30:27.932Z,10.21
2023-05-05T22:32:54.891Z,10.21
2023-05-05T22:35:21.321Z,10.21
2023-05-05T22:37:47.727Z,10.23
2023-05-05T22:40:14.237Z,10.25
2023-05-05T22:42:40.672Z,10.22
2023-05-05T22:45:08.457Z,10.21
2023-05-05T22:47:35.173Z,10.23
2023-05-05T22:50:01.702Z,10.26
2023-05-05T22:52:28.869Z,10.31
2023-05-05T22:54:55.875Z,10.32
2023-05-05T22:57:22.216Z,10.27
2023-05-05T22:59:48.553Z,10.23
2023-05-05T23:02:14.877Z,10.20
2023-05-05T23:04:43.470Z,10.18
2023-05-05T23:07:10.908Z,10.19
2023-05-05T23:09:37.239Z,10.23
2023-05-05T23:12:03.924Z,10.25
2023-05-05T23:14:30.321Z,10.23
2023-05-05T23:16:56.691Z,10.22
2023-05-05T23:19:24.081Z,10.26
2023-05-05T23:21:53.556Z,10.26
2023-05-05T23:24:20.595Z,10.29
2023-05-05T23:26:46.965Z,10.28
2023-05-05T23:29:13.280Z,10.27
2023-05-05T23:31:39.603Z,10.29
2023-05-05T23:34:06.360Z,10.27
2023-05-05T23:36:32.742Z,10.23
2023-05-05T23:38:59.146Z,10.17
2023-05-05T23:41:25.481Z,10.14
2023-05-05T23:43:51.791Z,10.12
2023-05-05T23:46:18.213Z,10.14
2023-05-05T23:48:44.573Z,10.15
2023-05-05T23:51:11.027Z,10.20
2023-05-05T23:53:37.349Z,10.20
2023-05-05T23:56:03.858Z,10.22
2023-05-05T23:58:30.193Z,10.23
